createdAt,value
2023-04-20T00:00:07.426Z,537.00
2023-04-20T00:01:07.466Z,533.00
2023-04-20T00:02:07.634Z,540.00
2023-04-20T00:03:07.779Z,536.00
2023-04-20T00:04:07.693Z,537.00
2023-04-20T00:05:07.665Z,538.00
2023-04-20T00:06:07.687Z,538.00
2023-04-20T00:07:07.717Z,533.00
2023-04-20T00:08:07.758Z,536.00
2023-04-20T00:09:07.808Z,532.00
2023-04-20T00:10:07.849Z,536.00
2023-04-20T00:11:07.898Z,539.00
2023-04-20T00:12:08.632Z,536.00
2023-04-20T00:13:08.049Z,532.00
2023-04-20T00:14:08.136Z,534.00
2023-04-20T00:15:08.235Z,538.00
2023-04-20T00:16:08.334Z,540.00
2023-04-20T00:17:08.602Z,528.00
2023-04-20T00:18:08.677Z,531.00
2023-04-20T00:19:08.629Z,534.00
2023-04-20T00:20:08.740Z,532.00
2023-04-20T00:21:08.839Z,528.00
2023-04-20T00:22:08.940Z,529.00
2023-04-20T00:23:09.055Z,539.00
2023-04-20T00:24:10.149Z,535.00
2023-04-20T00:25:09.246Z,534.00
2023-04-20T00:26:09.326Z,532.00
2023-04-20T00:27:09.429Z,530.00
2023-04-20T00:28:09.542Z,533.00
2023-04-20T00:29:09.629Z,533.00
2023-04-20T00:30:09.797Z,528.00
2023-04-20T00:31:09.835Z,535.00
2023-04-20T00:32:09.884Z,532.00
2023-04-20T00:33:09.990Z,528.00
2023-04-20T00:34:10.037Z,529.00
2023-04-20T00:35:10.059Z,529.00
2023-04-20T00:36:10.092Z,529.00
2023-04-20T00:37:10.132Z,532.00
2023-04-20T00:38:10.160Z,533.00
2023-04-20T00:39:10.213Z,531.00
2023-04-20T00:40:10.247Z,537.00
2023-04-20T00:41:10.289Z,531.00
2023-04-20T00:42:10.330Z,531.00
2023-04-20T00:43:10.378Z,534.00
2023-04-20T00:44:10.470Z,535.00
2023-04-20T00:45:10.544Z,537.00
2023-04-20T00:46:10.685Z,528.00
2023-04-20T00:47:10.763Z,529.00
2023-04-20T00:48:10.864Z,534.00
2023-04-20T00:49:10.982Z,525.00
2023-04-20T00:50:12.004Z,525.00
2023-04-20T00:51:11.041Z,527.00
2023-04-20T00:52:11.084Z,529.00
2023-04-20T00:53:11.111Z,531.00
2023-04-20T00:54:11.163Z,528.00
2023-04-20T00:55:11.200Z,529.00
2023-04-20T00:56:11.241Z,532.00
2023-04-20T00:57:11.277Z,536.00
2023-04-20T00:58:11.315Z,531.00
2023-04-20T00:59:11.408Z,538.00
2023-04-20T01:00:11.507Z,528.00
2023-04-20T01:01:11.714Z,529.00
2023-04-20T01:02:13.686Z,534.00
2023-04-20T01:03:11.869Z,532.00
2023-04-20T01:04:11.961Z,527.00
2023-04-20T01:05:12.010Z,529.00
2023-04-20T01:06:12.126Z,526.00
2023-04-20T01:07:12.215Z,525.00
2023-04-20T01:08:12.305Z,527.00
2023-04-20T01:09:12.395Z,524.00
2023-04-20T01:10:12.476Z,525.00
2023-04-20T01:11:12.547Z,523.00
2023-04-20T01:12:13.161Z,524.00
2023-04-20T01:13:12.616Z,525.00
2023-04-20T01:14:12.643Z,524.00
2023-04-20T01:15:12.677Z,525.00
2023-04-20T01:16:12.817Z,527.00
2023-04-20T01:17:12.744Z,527.00
2023-04-20T01:18:12.781Z,526.00
2023-04-20T01:19:12.823Z,535.00
2023-04-20T01:20:12.855Z,529.00
2023-04-20T01:21:12.946Z,524.00
2023-04-20T01:22:12.923Z,533.00
2023-04-20T01:23:12.963Z,532.00
2023-04-20T01:24:13.066Z,534.00
2023-04-20T01:25:13.171Z,533.00
2023-04-20T01:26:13.266Z,532.00
2023-04-20T01:27:13.289Z,532.00
2023-04-20T01:28:13.333Z,533.00
2023-04-20T01:29:13.373Z,533.00
2023-04-20T01:30:13.418Z,535.00
2023-04-20T01:31:13.571Z,532.00
2023-04-20T01:32:13.479Z,532.00
2023-04-20T01:33:13.497Z,528.00
2023-04-20T01:34:13.527Z,530.00
2023-04-20T01:35:13.551Z,518.00
2023-04-20T01:36:13.585Z,540.00
2023-04-20T01:37:13.616Z,541.00
2023-04-20T01:38:13.646Z,542.00
2023-04-20T01:39:13.721Z,541.00
2023-04-20T01:40:13.699Z,541.00
2023-04-20T01:41:13.709Z,534.00
2023-04-20T01:42:13.743Z,534.00
2023-04-20T01:43:13.772Z,533.00
2023-04-20T01:44:13.817Z,551.00
2023-04-20T01:45:13.831Z,541.00
2023-04-20T01:46:13.946Z,539.00
2023-04-20T01:47:14.893Z,540.00
2023-04-20T01:48:13.913Z,540.00
2023-04-20T01:49:13.941Z,532.00
2023-04-20T01:50:13.975Z,537.00
2023-04-20T01:51:13.999Z,546.00
2023-04-20T01:52:14.018Z,534.00
2023-04-20T01:53:14.056Z,536.00
2023-04-20T01:54:14.076Z,536.00
2023-04-20T01:55:14.117Z,535.00
2023-04-20T01:56:14.138Z,535.00
2023-04-20T01:57:14.147Z,536.00
2023-04-20T01:58:14.187Z,537.00
2023-04-20T01:59:15.326Z,536.00
2023-04-20T02:00:14.231Z,536.00
2023-04-20T02:01:14.298Z,537.00
2023-04-20T02:02:14.329Z,543.00
2023-04-20T02:03:14.416Z,542.00
2023-04-20T02:04:14.360Z,535.00
2023-04-20T02:05:14.358Z,524.00
2023-04-20T02:06:14.375Z,523.00
2023-04-20T02:07:14.403Z,531.00
2023-04-20T02:08:14.435Z,545.00
2023-04-20T02:09:14.517Z,535.00
2023-04-20T02:10:14.496Z,542.00
2023-04-20T02:11:14.497Z,537.00
2023-04-20T02:12:14.528Z,531.00
2023-04-20T02:13:14.584Z,534.00
2023-04-20T02:14:14.583Z,532.00
2023-04-20T02:15:14.629Z,535.00
2023-04-20T02:16:14.671Z,539.00
2023-04-20T02:17:14.749Z,547.00
2023-04-20T02:18:14.737Z,528.00
2023-04-20T02:19:14.852Z,526.00
2023-04-20T02:20:14.805Z,537.00
2023-04-20T02:21:14.877Z,532.00
2023-04-20T02:22:14.953Z,538.00
2023-04-20T02:23:15.011Z,538.00
2023-04-20T02:24:15.067Z,541.00
2023-04-20T02:25:15.129Z,533.00
2023-04-20T02:26:15.204Z,531.00
2023-04-20T02:27:15.293Z,523.00
2023-04-20T02:28:15.387Z,542.00
2023-04-20T02:29:15.702Z,533.00
2023-04-20T02:30:15.513Z,534.00
2023-04-20T02:31:15.601Z,543.00
2023-04-20T02:32:15.613Z,528.00
2023-04-20T02:33:15.654Z,539.00
2023-04-20T02:34:15.673Z,533.00
2023-04-20T02:35:15.754Z,540.00
2023-04-20T02:36:15.805Z,534.00
2023-04-20T02:37:15.855Z,529.00
2023-04-20T02:38:15.907Z,547.00
2023-04-20T02:39:16.413Z,548.00
2023-04-20T02:40:15.982Z,545.00
2023-04-20T02:41:15.974Z,541.00
2023-04-20T02:42:15.991Z,540.00
2023-04-20T02:43:16.022Z,535.00
2023-04-20T02:44:16.057Z,548.00
2023-04-20T02:45:16.072Z,548.00
2023-04-20T02:46:16.166Z,536.00
2023-04-20T02:47:16.136Z,535.00
2023-04-20T02:48:16.165Z,532.00
2023-04-20T02:49:16.405Z,528.00
2023-04-20T02:50:16.236Z,540.00
2023-04-20T02:51:16.245Z,540.00
2023-04-20T02:52:16.280Z,541.00
2023-04-20T02:53:16.308Z,543.00
2023-04-20T02:54:16.346Z,541.00
2023-04-20T02:55:16.367Z,541.00
2023-04-20T02:56:16.412Z,531.00
2023-04-20T02:57:16.433Z,537.00
2023-04-20T02:58:16.468Z,544.00
2023-04-20T02:59:16.654Z,532.00
2023-04-20T03:00:16.517Z,535.00
2023-04-20T03:01:16.578Z,541.00
2023-04-20T03:02:16.651Z,537.00
2023-04-20T03:03:16.685Z,541.00
2023-04-20T03:04:16.763Z,538.00
2023-04-20T03:05:16.747Z,528.00
2023-04-20T03:06:17.718Z,533.00
2023-04-20T03:07:16.973Z,533.00
2023-04-20T03:08:16.934Z,531.00
2023-04-20T03:09:17.277Z,540.00
2023-04-20T03:10:17.024Z,537.00
2023-04-20T03:11:17.059Z,535.00
2023-04-20T03:12:17.103Z,526.00
2023-04-20T03:13:17.342Z,537.00
2023-04-20T03:14:17.223Z,532.00
2023-04-20T03:15:17.258Z,546.00
2023-04-20T03:16:17.367Z,543.00
2023-04-20T03:17:17.370Z,532.00
2023-04-20T03:18:17.404Z,541.00
2023-04-20T03:19:17.551Z,533.00
2023-04-20T03:20:17.471Z,533.00
2023-04-20T03:21:17.490Z,533.00
2023-04-20T03:22:17.512Z,535.00
2023-04-20T03:23:17.545Z,533.00
2023-04-20T03:24:17.590Z,540.00
2023-04-20T03:25:17.620Z,531.00
2023-04-20T03:26:17.646Z,543.00
2023-04-20T03:27:17.668Z,544.00
2023-04-20T03:28:17.706Z,543.00
2023-04-20T03:29:18.098Z,543.00
2023-04-20T03:30:17.756Z,532.00
2023-04-20T03:31:17.796Z,543.00
2023-04-20T03:32:17.821Z,533.00
2023-04-20T03:33:17.839Z,533.00
2023-04-20T03:34:17.880Z,532.00
2023-04-20T03:35:17.905Z,539.00
2023-04-20T03:36:17.929Z,543.00
2023-04-20T03:37:17.958Z,541.00
2023-04-20T03:38:17.991Z,542.00
2023-04-20T03:39:18.442Z,532.00
2023-04-20T03:40:18.050Z,532.00
2023-04-20T03:41:18.086Z,533.00
2023-04-20T03:42:18.107Z,535.00
2023-04-20T03:43:18.141Z,543.00
2023-04-20T03:44:18.154Z,540.00
2023-04-20T03:45:18.187Z,547.00
2023-04-20T03:46:18.307Z,544.00
2023-04-20T03:47:18.227Z,548.00
2023-04-20T03:48:18.258Z,531.00
2023-04-20T03:49:18.422Z,529.00
2023-04-20T03:50:18.302Z,549.00
2023-04-20T03:51:19.228Z,541.00
2023-04-20T03:52:18.344Z,542.00
2023-04-20T03:53:18.367Z,543.00
2023-04-20T03:54:18.390Z,546.00
2023-04-20T03:55:18.435Z,543.00
2023-04-20T03:56:18.453Z,530.00
2023-04-20T03:57:18.464Z,546.00
2023-04-20T03:58:18.483Z,546.00
2023-04-20T03:59:18.674Z,545.00
2023-04-20T04:00:18.547Z,543.00
2023-04-20T04:01:18.577Z,535.00
2023-04-20T04:02:18.684Z,544.00
2023-04-20T04:03:18.959Z,539.00
2023-04-20T04:05:18.718Z,543.00
2023-04-20T04:06:18.714Z,539.00
2023-04-20T04:07:18.738Z,537.00
2023-04-20T04:08:18.759Z,543.00
2023-04-20T04:09:19.014Z,537.00
2023-04-20T04:10:18.849Z,541.00
2023-04-20T04:11:18.849Z,547.00
2023-04-20T04:12:18.887Z,546.00
2023-04-20T04:13:18.904Z,545.00
2023-04-20T04:14:20.734Z,546.00
2023-04-20T04:15:18.965Z,543.00
2023-04-20T04:16:19.038Z,544.00
2023-04-20T04:17:19.020Z,551.00
2023-04-20T04:18:19.052Z,541.00
2023-04-20T04:19:19.307Z,536.00
2023-04-20T04:20:19.115Z,549.00
2023-04-20T04:21:19.143Z,531.00
2023-04-20T04:22:19.167Z,548.00
2023-04-20T04:23:19.195Z,543.00
2023-04-20T04:24:19.221Z,544.00
2023-04-20T04:25:19.256Z,543.00
2023-04-20T04:26:19.315Z,545.00
2023-04-20T04:27:19.326Z,548.00
2023-04-20T04:28:20.337Z,548.00
2023-04-20T04:29:19.876Z,548.00
2023-04-20T04:30:19.416Z,546.00
2023-04-20T04:31:19.525Z,545.00
2023-04-20T04:32:20.544Z,548.00
2023-04-20T04:33:19.559Z,549.00
2023-04-20T04:34:19.551Z,545.00
2023-04-20T04:35:19.633Z,546.00
2023-04-20T04:36:19.606Z,542.00
2023-04-20T04:37:19.644Z,547.00
2023-04-20T04:38:19.699Z,546.00
2023-04-20T04:39:19.808Z,547.00
2023-04-20T04:40:19.728Z,548.00
2023-04-20T04:41:19.768Z,548.00
2023-04-20T04:42:19.801Z,545.00
2023-04-20T04:43:20.826Z,547.00
2023-04-20T04:44:20.739Z,548.00
2023-04-20T04:45:19.894Z,547.00
2023-04-20T04:46:19.975Z,548.00
2023-04-20T04:47:20.959Z,548.00
2023-04-20T04:48:19.979Z,549.00
2023-04-20T04:49:20.197Z,550.00
2023-04-20T04:50:20.010Z,551.00
2023-04-20T04:51:20.053Z,547.00
2023-04-20T04:52:20.044Z,548.00
2023-04-20T04:53:20.079Z,549.00
2023-04-20T04:54:20.113Z,551.00
2023-04-20T04:55:20.140Z,548.00
2023-04-20T04:56:20.177Z,550.00
2023-04-20T04:57:20.204Z,547.00
2023-04-20T04:58:20.232Z,548.00
2023-04-20T04:59:20.297Z,548.00
2023-04-20T05:00:20.321Z,549.00
2023-04-20T05:01:21.276Z,549.00
2023-04-20T05:02:20.607Z,551.00
2023-04-20T05:03:20.485Z,552.00
2023-04-20T05:04:20.536Z,552.00
2023-04-20T05:05:20.455Z,552.00
2023-04-20T05:06:20.485Z,552.00
2023-04-20T05:07:20.518Z,551.00
2023-04-20T05:08:20.546Z,547.00
2023-04-20T05:09:20.815Z,549.00
2023-04-20T05:10:20.630Z,548.00
2023-04-20T05:11:20.653Z,548.00
2023-04-20T05:12:20.661Z,548.00
2023-04-20T05:13:20.687Z,548.00
2023-04-20T05:14:20.718Z,543.00
2023-04-20T05:15:20.746Z,544.00
2023-04-20T05:16:20.834Z,548.00
2023-04-20T05:17:20.806Z,548.00
2023-04-20T05:18:20.878Z,549.00
2023-04-20T05:19:20.851Z,549.00
2023-04-20T05:20:20.863Z,542.00
2023-04-20T05:21:20.901Z,546.00
2023-04-20T05:22:20.929Z,548.00
2023-04-20T05:23:20.957Z,552.00
2023-04-20T05:24:20.984Z,543.00
2023-04-20T05:25:21.002Z,559.00
2023-04-20T05:26:21.031Z,560.00
2023-04-20T05:27:21.045Z,563.00
2023-04-20T05:28:21.077Z,567.00
2023-04-20T05:29:23.753Z,561.00
2023-04-20T05:30:22.093Z,561.00
2023-04-20T05:31:21.185Z,568.00
2023-04-20T05:32:21.270Z,587.00
2023-04-20T05:33:21.217Z,609.00
2023-04-20T05:34:21.231Z,660.00
2023-04-20T05:35:21.414Z,703.00
2023-04-20T05:36:21.270Z,734.00
2023-04-20T05:37:21.292Z,771.00
2023-04-20T05:38:21.304Z,798.00
2023-04-20T05:39:22.276Z,814.00
2023-04-20T05:40:21.361Z,840.00
2023-04-20T05:41:21.378Z,882.00
2023-04-20T05:42:21.401Z,936.00
2023-04-20T05:43:21.442Z,948.00
2023-04-20T05:44:21.455Z,957.00
2023-04-20T05:45:21.462Z,1022.00
2023-04-20T05:46:21.598Z,1037.00
2023-04-20T05:47:21.589Z,1087.00
2023-04-20T05:48:21.672Z,1122.00
2023-04-20T05:49:21.682Z,1115.00
2023-04-20T05:50:24.245Z,1149.00
2023-04-20T05:51:21.892Z,1180.00
2023-04-20T05:52:22.732Z,1209.00
2023-04-20T05:53:22.016Z,1241.00
2023-04-20T05:54:22.260Z,1265.00
2023-04-20T05:55:22.985Z,1267.00
2023-04-20T05:56:22.125Z,1274.00
2023-04-20T05:57:22.120Z,1295.00
2023-04-20T05:58:22.148Z,1330.00
2023-04-20T05:59:22.188Z,1395.00
2023-04-20T06:00:25.218Z,1418.00
2023-04-20T06:01:22.205Z,1421.00
2023-04-20T06:02:22.378Z,1426.00
2023-04-20T06:03:22.556Z,1441.00
2023-04-20T06:04:22.612Z,1475.00
2023-04-20T06:05:22.361Z,1519.00
2023-04-20T06:06:22.310Z,1556.00
2023-04-20T06:07:22.340Z,1576.00
2023-04-20T06:08:22.348Z,1596.00
2023-04-20T06:09:30.352Z,1628.00
2023-04-20T06:10:22.395Z,1632.00
2023-04-20T06:11:22.405Z,1639.00
2023-04-20T06:12:23.439Z,1656.00
2023-04-20T06:13:22.431Z,1678.00
2023-04-20T06:14:22.454Z,1729.00
2023-04-20T06:15:22.472Z,1744.00
2023-04-20T06:16:22.548Z,1773.00
2023-04-20T06:17:22.550Z,1793.00
2023-04-20T06:18:22.530Z,1788.00
2023-04-20T06:19:22.553Z,1829.00
2023-04-20T06:20:22.563Z,1833.00
2023-04-20T06:21:22.580Z,1866.00
2023-04-20T06:22:22.600Z,1923.00
2023-04-20T06:23:22.623Z,1898.00
2023-04-20T06:24:24.266Z,1865.00
2023-04-20T06:25:22.764Z,1813.00
2023-04-20T06:26:22.693Z,1792.00
2023-04-20T06:27:22.795Z,1692.00
2023-04-20T06:28:22.858Z,1696.00
2023-04-20T06:29:22.922Z,1718.00
2023-04-20T06:30:22.968Z,1699.00
2023-04-20T06:31:24.025Z,1701.00
2023-04-20T06:32:23.024Z,1703.00
2023-04-20T06:33:23.011Z,1707.00
2023-04-20T06:34:23.031Z,1724.00
2023-04-20T06:35:37.755Z,1749.00
2023-04-20T06:36:23.097Z,1704.00
2023-04-20T06:37:23.794Z,1719.00
2023-04-20T06:38:23.080Z,1746.00
2023-04-20T06:39:23.097Z,1781.00
2023-04-20T06:40:23.098Z,1834.00
2023-04-20T06:41:23.101Z,1853.00
2023-04-20T06:42:23.175Z,1867.00
2023-04-20T06:43:25.760Z,1880.00
2023-04-20T06:44:23.372Z,1881.00
2023-04-20T06:45:23.417Z,1887.00
2023-04-20T06:46:23.476Z,1897.00
2023-04-20T06:47:23.531Z,1915.00
2023-04-20T06:48:32.272Z,1976.00
2023-04-20T06:49:24.503Z,1884.00
2023-04-20T06:50:23.517Z,1904.00
2023-04-20T06:51:25.282Z,1930.00
2023-04-20T06:52:24.282Z,1992.00
2023-04-20T06:53:24.757Z,1888.00
2023-04-20T06:54:23.810Z,1914.00
2023-04-20T06:55:23.819Z,1966.00
2023-04-20T06:56:23.857Z,2046.00
2023-04-20T06:57:23.864Z,2156.00
2023-04-20T06:58:23.876Z,2197.00
2023-04-20T06:59:23.905Z,2210.00
2023-04-20T07:00:23.962Z,2241.00
2023-04-20T07:01:24.007Z,2265.00
2023-04-20T07:02:24.108Z,2274.00
2023-04-20T07:03:24.211Z,2293.00
2023-04-20T07:04:24.099Z,2319.00
2023-04-20T07:05:24.082Z,2363.00
2023-04-20T07:06:24.093Z,2377.00
2023-04-20T07:07:24.187Z,2372.00
2023-04-20T07:08:24.133Z,2402.00
2023-04-20T07:09:24.153Z,2412.00
2023-04-20T07:10:24.160Z,2437.00
2023-04-20T07:11:24.225Z,2440.00
2023-04-20T07:12:24.246Z,2465.00
2023-04-20T07:13:24.229Z,2477.00
2023-04-20T07:14:24.247Z,2502.00
2023-04-20T07:15:24.282Z,2524.00
2023-04-20T07:16:24.354Z,2503.00
2023-04-20T07:17:24.393Z,2471.00
2023-04-20T07:18:24.368Z,2465.00
2023-04-20T07:19:24.402Z,2459.00
2023-04-20T07:20:24.458Z,2460.00
2023-04-20T07:21:25.244Z,2427.00
2023-04-20T07:22:24.475Z,2417.00
2023-04-20T07:23:24.519Z,2421.00
2023-04-20T07:24:24.697Z,2425.00
2023-04-20T07:25:24.571Z,2431.00
2023-04-20T07:26:24.593Z,2429.00
2023-04-20T07:27:24.624Z,2425.00
2023-04-20T07:28:24.692Z,2428.00
2023-04-20T07:29:24.708Z,2420.00
2023-04-20T07:30:24.750Z,2422.00
2023-04-20T07:31:24.809Z,2401.00
2023-04-20T07:32:24.863Z,2395.00
2023-04-20T07:33:24.861Z,2394.00
2023-04-20T07:34:25.696Z,2384.00
2023-04-20T07:35:24.956Z,2389.00
2023-04-20T07:36:25.009Z,2375.00
2023-04-20T07:37:26.453Z,2366.00
2023-04-20T07:38:25.100Z,2355.00
2023-04-20T07:39:25.146Z,2358.00
2023-04-20T07:40:25.229Z,2342.00
2023-04-20T07:41:25.245Z,2339.00
2023-04-20T07:42:25.294Z,2340.00
2023-04-20T07:43:25.343Z,2325.00
2023-04-20T07:44:25.410Z,2318.00
2023-04-20T07:45:25.559Z,2313.00
2023-04-20T07:46:25.591Z,2317.00
2023-04-20T07:47:25.603Z,2296.00
2023-04-20T07:48:25.638Z,2288.00
2023-04-20T07:49:26.201Z,2288.00
2023-04-20T07:50:25.758Z,2286.00
2023-04-20T07:51:25.792Z,2264.00
2023-04-20T07:52:25.872Z,2279.00
2023-04-20T07:53:25.880Z,2265.00
2023-04-20T07:54:25.954Z,2255.00
2023-04-20T07:55:25.987Z,2249.00
2023-04-20T07:56:26.102Z,2250.00
2023-04-20T07:57:26.114Z,2244.00
2023-04-20T07:58:26.154Z,2223.00
2023-04-20T07:59:26.210Z,2231.00
2023-04-20T08:00:26.286Z,2215.00
2023-04-20T08:01:26.354Z,2210.00
2023-04-20T08:02:26.445Z,2214.00
2023-04-20T08:03:26.515Z,2206.00
2023-04-20T08:04:26.715Z,2208.00
2023-04-20T08:05:26.718Z,2195.00
2023-04-20T08:06:26.587Z,2185.00
2023-04-20T08:07:26.648Z,2188.00
2023-04-20T08:08:26.698Z,2179.00
2023-04-20T08:09:26.756Z,2173.00
2023-04-20T08:10:26.823Z,2161.00
2023-04-20T08:11:27.003Z,2166.00
2023-04-20T08:12:26.914Z,2164.00
2023-04-20T08:13:37.803Z,1875.00
2023-04-20T08:14:45.792Z,500.00
2023-04-20T08:15:45.795Z,500.00
2023-04-20T08:16:45.851Z,500.00
2023-04-20T08:17:53.489Z,500.00
2023-04-20T08:18:45.855Z,500.00
2023-04-20T08:19:46.165Z,500.00
2023-04-20T08:20:45.954Z,500.00
2023-04-20T08:21:46.474Z,500.00
2023-04-20T08:22:45.923Z,500.00
2023-04-20T08:23:45.927Z,497.00
2023-04-20T08:24:45.923Z,506.00
2023-04-20T08:25:45.919Z,521.00
2023-04-20T08:26:45.930Z,515.00
2023-04-20T08:27:45.930Z,511.00
2023-04-20T08:28:45.918Z,510.00
2023-04-20T08:29:45.939Z,507.00
2023-04-20T08:30:45.910Z,507.00
2023-04-20T08:31:45.929Z,501.00
2023-04-20T08:32:46.043Z,505.00
2023-04-20T08:33:46.307Z,504.00
2023-04-20T08:34:45.933Z,513.00
2023-04-20T08:35:45.921Z,509.00
2023-04-20T08:36:46.008Z,502.00
2023-04-20T08:37:46.045Z,505.00
2023-04-20T08:38:46.098Z,512.00
2023-04-20T08:39:46.158Z,503.00
2023-04-20T08:40:46.210Z,505.00
2023-04-20T08:41:46.267Z,511.00
2023-04-20T08:42:46.335Z,509.00
2023-04-20T08:43:46.394Z,508.00
2023-04-20T08:44:46.470Z,511.00
2023-04-20T08:45:46.517Z,511.00
2023-04-20T08:46:46.650Z,504.00
2023-04-20T08:47:46.732Z,506.00
2023-04-20T08:48:46.693Z,505.00
2023-04-20T08:49:47.462Z,504.00
2023-04-20T08:50:46.805Z,507.00
2023-04-20T08:51:46.891Z,500.00
2023-04-20T08:52:46.929Z,500.00
2023-04-20T08:53:46.985Z,510.00
2023-04-20T08:54:56.190Z,506.00
2023-04-20T08:55:48.044Z,507.00
2023-04-20T08:56:47.109Z,507.00
2023-04-20T08:57:47.062Z,500.00
2023-04-20T08:58:47.076Z,497.00
2023-04-20T08:59:47.076Z,491.00
2023-04-20T09:00:47.072Z,506.00
2023-04-20T09:01:47.114Z,502.00
2023-04-20T09:02:47.209Z,506.00
2023-04-20T09:03:47.195Z,506.00
2023-04-20T09:04:47.254Z,503.00
2023-04-20T09:05:47.198Z,506.00
2023-04-20T09:06:47.252Z,513.00
2023-04-20T09:07:47.315Z,510.00
2023-04-20T09:08:47.382Z,513.00
2023-04-20T09:09:47.489Z,511.00
2023-04-20T09:10:47.519Z,511.00
2023-04-20T09:11:47.565Z,502.00
2023-04-20T09:12:47.609Z,508.00
2023-04-20T09:13:47.671Z,516.00
2023-04-20T09:14:47.745Z,511.00
2023-04-20T09:15:47.773Z,508.00
2023-04-20T09:16:47.864Z,500.00
2023-04-20T09:17:47.910Z,510.00
2023-04-20T09:18:47.950Z,507.00
2023-04-20T09:19:48.020Z,512.00
2023-04-20T09:20:48.064Z,498.00
2023-04-20T09:21:48.104Z,498.00
2023-04-20T09:22:48.062Z,498.00
2023-04-20T09:23:48.063Z,494.00
2023-04-20T09:24:48.091Z,510.00
2023-04-20T09:25:48.204Z,505.00
2023-04-20T09:26:48.075Z,500.00
2023-04-20T09:27:48.071Z,508.00
2023-04-20T09:28:48.073Z,508.00
2023-04-20T09:29:48.075Z,505.00
2023-04-20T09:30:48.073Z,514.00
2023-04-20T09:31:48.251Z,505.00
2023-04-20T09:32:48.261Z,503.00
2023-04-20T09:33:48.216Z,510.00
2023-04-20T09:34:48.271Z,500.00
2023-04-20T09:35:48.320Z,510.00
2023-04-20T09:36:48.388Z,521.00
2023-04-20T09:37:48.426Z,504.00
2023-04-20T09:38:48.493Z,516.00
2023-04-20T09:39:48.548Z,505.00
2023-04-20T09:40:48.553Z,516.00
2023-04-20T09:41:48.614Z,516.00
2023-04-20T09:42:48.657Z,523.00
2023-04-20T09:43:48.696Z,510.00
2023-04-20T09:44:48.725Z,516.00
2023-04-20T09:45:48.798Z,518.00
2023-04-20T09:46:48.821Z,513.00
2023-04-20T09:47:48.939Z,514.00
2023-04-20T09:48:48.872Z,515.00
2023-04-20T09:49:48.899Z,516.00
2023-04-20T09:50:50.648Z,518.00
2023-04-20T09:51:48.885Z,516.00
2023-04-20T09:52:48.879Z,515.00
2023-04-20T09:53:49.909Z,517.00
2023-04-20T09:54:48.865Z,518.00
2023-04-20T09:55:48.888Z,518.00
2023-04-20T09:56:48.894Z,526.00
2023-04-20T09:57:48.936Z,519.00
2023-04-20T09:58:48.950Z,508.00
2023-04-20T09:59:49.951Z,517.00
2023-04-20T10:00:49.030Z,512.00
2023-04-20T10:01:49.177Z,512.00
2023-04-20T10:02:49.155Z,515.00
2023-04-20T10:03:50.107Z,522.00
2023-04-20T10:04:49.433Z,510.00
2023-04-20T10:05:49.766Z,504.00
2023-04-20T10:06:49.293Z,518.00
2023-04-20T10:07:49.281Z,512.00
2023-04-20T10:08:49.381Z,515.00
2023-04-20T10:09:49.357Z,513.00
2023-04-20T10:10:49.420Z,508.00
2023-04-20T10:11:53.857Z,511.00
2023-04-20T10:12:49.641Z,512.00
2023-04-20T10:13:49.374Z,512.00
2023-04-20T10:14:49.357Z,500.00
2023-04-20T10:15:49.385Z,480.00
2023-04-20T10:16:49.476Z,441.00
2023-04-20T10:17:50.033Z,466.00
2023-04-20T10:18:49.545Z,467.00
2023-04-20T10:19:49.518Z,465.00
2023-04-20T10:20:49.573Z,452.00
2023-04-20T10:21:49.611Z,456.00
2023-04-20T10:22:54.554Z,474.00
2023-04-20T10:23:49.663Z,466.00
2023-04-20T10:24:49.686Z,469.00
2023-04-20T10:25:49.674Z,472.00
2023-04-20T10:26:49.698Z,479.00
2023-04-20T10:27:49.648Z,468.00
2023-04-20T10:28:49.649Z,475.00
2023-04-20T10:29:49.662Z,492.00
2023-04-20T10:30:49.686Z,509.00
2023-04-20T10:31:53.368Z,551.00
2023-04-20T10:32:49.684Z,470.00
2023-04-20T10:33:49.634Z,483.00
2023-04-20T10:34:51.494Z,510.00
2023-04-20T10:36:00.898Z,556.00
2023-04-20T10:36:52.853Z,471.00
2023-04-20T10:37:49.977Z,490.00
2023-04-20T10:38:49.770Z,525.00
2023-04-20T10:39:50.507Z,580.00
2023-04-20T10:40:54.892Z,656.00
2023-04-20T10:41:49.609Z,473.00
2023-04-20T10:42:49.602Z,500.00
2023-04-20T10:43:49.681Z,546.00
2023-04-20T10:44:49.644Z,616.00
2023-04-20T10:45:49.661Z,774.00
2023-04-20T10:46:49.841Z,825.00
2023-04-20T10:47:54.549Z,841.00
2023-04-20T10:48:49.754Z,844.00
2023-04-20T10:49:49.755Z,849.00
2023-04-20T10:50:50.490Z,870.00
2023-04-20T10:51:50.118Z,847.00
2023-04-20T10:52:50.036Z,863.00
2023-04-20T10:53:50.108Z,896.00
2023-04-20T10:54:50.086Z,953.00
2023-04-20T10:55:50.116Z,1044.00
2023-04-20T10:56:50.192Z,1057.00
2023-04-20T10:57:50.191Z,1086.00
2023-04-20T10:58:50.952Z,1109.00
2023-04-20T10:59:50.241Z,1152.00
2023-04-20T11:00:50.251Z,1170.00
2023-04-20T11:01:50.279Z,1166.00
2023-04-20T11:02:53.109Z,1176.00
2023-04-20T11:03:50.343Z,1217.00
2023-04-20T11:04:50.542Z,1262.00
2023-04-20T11:05:50.265Z,1328.00
2023-04-20T11:06:50.301Z,1333.00
2023-04-20T11:07:50.252Z,1331.00
2023-04-20T11:08:50.222Z,1335.00
2023-04-20T11:09:51.000Z,1341.00
2023-04-20T11:11:01.236Z,1350.00
2023-04-20T11:11:50.183Z,1354.00
2023-04-20T11:12:57.006Z,1358.00
2023-04-20T11:13:50.152Z,1353.00
2023-04-20T11:14:51.167Z,1353.00
2023-04-20T11:15:50.148Z,1355.00
2023-04-20T11:16:51.887Z,1358.00
2023-04-20T11:17:50.129Z,1347.00
2023-04-20T11:18:50.088Z,1353.00
2023-04-20T11:19:50.083Z,1340.00
2023-04-20T11:20:50.111Z,1330.00
2023-04-20T11:21:50.054Z,1329.00
2023-04-20T11:22:52.068Z,1321.00
2023-04-20T11:23:50.254Z,1317.00
2023-04-20T11:24:50.041Z,1310.00
2023-04-20T11:25:50.023Z,1312.00
2023-04-20T11:26:49.993Z,1301.00
2023-04-20T11:27:50.059Z,1301.00
2023-04-20T11:28:49.979Z,1296.00
2023-04-20T11:29:49.986Z,1298.00
2023-04-20T11:30:49.968Z,1276.00
2023-04-20T11:31:49.989Z,1279.00
2023-04-20T11:32:50.028Z,1284.00
2023-04-20T11:33:49.966Z,1279.00
2023-04-20T11:34:55.997Z,1266.00
2023-04-20T11:35:50.930Z,1268.00
2023-04-20T11:36:49.923Z,1269.00
2023-04-20T11:37:49.981Z,1267.00
2023-04-20T11:38:49.904Z,1270.00
2023-04-20T11:39:49.914Z,1249.00
2023-04-20T11:40:49.889Z,1252.00
2023-04-20T11:41:49.898Z,1254.00
2023-04-20T11:42:50.504Z,1233.00
2023-04-20T11:43:49.890Z,1234.00
2023-04-20T11:44:49.883Z,1224.00
2023-04-20T11:45:49.904Z,1232.00
2023-04-20T11:46:49.873Z,1236.00
2023-04-20T11:47:49.926Z,1215.00
2023-04-20T11:48:49.959Z,1217.00
2023-04-20T11:49:49.991Z,1206.00
2023-04-20T11:50:50.046Z,1201.00
2023-04-20T11:51:50.086Z,1200.00
2023-04-20T11:52:50.131Z,1183.00
2023-04-20T11:53:50.176Z,1185.00
2023-04-20T11:54:50.252Z,1184.00
2023-04-20T11:55:50.273Z,1194.00
2023-04-20T11:56:50.321Z,1181.00
2023-04-20T11:57:50.385Z,1176.00
2023-04-20T11:58:50.418Z,1176.00
2023-04-20T11:59:50.472Z,1165.00
2023-04-20T12:00:50.526Z,1166.00
2023-04-20T12:01:50.580Z,1156.00
2023-04-20T12:02:50.808Z,1139.00
2023-04-20T12:03:50.841Z,1154.00
2023-04-20T12:04:50.795Z,1148.00
2023-04-20T12:05:50.851Z,1123.00
2023-04-20T12:06:50.843Z,1115.00
2023-04-20T12:07:50.874Z,1123.00
2023-04-20T12:08:50.935Z,1117.00
2023-04-20T12:09:50.987Z,1127.00
2023-04-20T12:10:50.978Z,1127.00
2023-04-20T12:11:51.973Z,1129.00
2023-04-20T12:12:50.967Z,1129.00
2023-04-20T12:13:50.954Z,1127.00
2023-04-20T12:14:50.956Z,1116.00
2023-04-20T12:15:50.992Z,1107.00
2023-04-20T12:16:51.021Z,1095.00
2023-04-20T12:17:50.959Z,1090.00
2023-04-20T12:18:50.928Z,1097.00
2023-04-20T12:19:50.918Z,1083.00
2023-04-20T12:20:50.961Z,1080.00
2023-04-20T12:21:51.014Z,1085.00
2023-04-20T12:22:51.095Z,1061.00